BCS1079 EBBR-EDDP
Flight info
| Callsign | BCS1079 |
|---|---|
| Flight time | 1h 0m |
| Altitude | 33000 |
| Route | SOPOK Y863 OGLOR DCT AMASI DCT MASEK DCT FEDZA T957 ESEGU/N0465F310 T957 KOJEC KOJEC1V |
| Aircraft | A306/H-SDE3FGHIRWY/LB1 |
Departure
| Time | 2026-05-03 22:59 |
|---|---|
| Airport | Brussels Airport (EBBR) |
Arrival
| Time | 2026-05-03 23:59 |
|---|---|
| Airport | Leipzig/Halle Airport (EDDP) |
| Time | Latitude | Longitude | Altitude | Speed | Heading |
|---|---|---|---|---|---|
| 2026-05-03 22:29 | 50.90274 | 4.45753 | 145 ft | 0 kts | 335° |
| 2026-05-03 22:42 | 50.90270 | 4.45756 | 145 ft | 3 kts | 335° |
| 2026-05-03 22:42 | 50.90246 | 4.45773 | 145 ft | 4 kts | 339° |
| 2026-05-03 22:42 | 50.90220 | 4.45787 | 145 ft | 4 kts | 347° |
| 2026-05-03 22:42 | 50.90195 | 4.45791 | 145 ft | 4 kts | 18° |
| 2026-05-03 22:43 | 50.90182 | 4.45778 | 145 ft | 0 kts | 65° |
| 2026-05-03 22:47 | 50.90182 | 4.45779 | 145 ft | 0 kts | 65° |
| 2026-05-03 22:47 | 50.90183 | 4.45782 | 145 ft | 0 kts | 65° |
| 2026-05-03 22:47 | 50.90185 | 4.45787 | 145 ft | 1 kts | 65° |
| 2026-05-03 22:47 | 50.90193 | 4.45815 | 145 ft | 4 kts | 65° |
| 2026-05-03 22:48 | 50.90209 | 4.45869 | 144 ft | 6 kts | 66° |
| 2026-05-03 22:48 | 50.90227 | 4.45934 | 144 ft | 7 kts | 65° |
| 2026-05-03 22:48 | 50.90249 | 4.46007 | 143 ft | 8 kts | 64° |
| 2026-05-03 22:48 | 50.90274 | 4.46089 | 142 ft | 9 kts | 65° |
| 2026-05-03 22:49 | 50.90299 | 4.46179 | 141 ft | 9 kts | 66° |
| 2026-05-03 22:49 | 50.90326 | 4.46278 | 139 ft | 10 kts | 65° |
| 2026-05-03 22:49 | 50.90356 | 4.46384 | 138 ft | 11 kts | 69° |
| 2026-05-03 22:49 | 50.90360 | 4.46504 | 137 ft | 11 kts | 102° |
| 2026-05-03 22:50 | 50.90326 | 4.46615 | 136 ft | 11 kts | 118° |
| 2026-05-03 22:50 | 50.90290 | 4.46728 | 135 ft | 12 kts | 115° |
| 2026-05-03 22:50 | 50.90254 | 4.46845 | 134 ft | 12 kts | 117° |
| 2026-05-03 22:50 | 50.90218 | 4.46960 | 134 ft | 12 kts | 116° |
| 2026-05-03 22:51 | 50.90182 | 4.47074 | 133 ft | 12 kts | 116° |
| 2026-05-03 22:51 | 50.90145 | 4.47194 | 125 ft | 12 kts | 115° |
| 2026-05-03 22:51 | 50.90135 | 4.47313 | 129 ft | 11 kts | 65° |
| 2026-05-03 22:51 | 50.90169 | 4.47428 | 129 ft | 12 kts | 65° |
| 2026-05-03 22:52 | 50.90206 | 4.47550 | 125 ft | 13 kts | 64° |
| 2026-05-03 22:52 | 50.90254 | 4.47721 | 129 ft | 18 kts | 65° |
| 2026-05-03 22:52 | 50.90304 | 4.47893 | 127 ft | 17 kts | 66° |
| 2026-05-03 22:52 | 50.90351 | 4.48056 | 122 ft | 16 kts | 65° |
| 2026-05-03 22:53 | 50.90396 | 4.48210 | 123 ft | 15 kts | 65° |
| 2026-05-03 22:53 | 50.90438 | 4.48355 | 124 ft | 14 kts | 65° |
| 2026-05-03 22:53 | 50.90477 | 4.48492 | 126 ft | 14 kts | 65° |
| 2026-05-03 22:53 | 50.90516 | 4.48626 | 127 ft | 14 kts | 65° |
| 2026-05-03 22:54 | 50.90557 | 4.48771 | 123 ft | 15 kts | 66° |
| 2026-05-03 22:54 | 50.90599 | 4.48916 | 123 ft | 14 kts | 65° |
| 2026-05-03 22:54 | 50.90640 | 4.49054 | 122 ft | 14 kts | 65° |
| 2026-05-03 22:54 | 50.90683 | 4.49208 | 123 ft | 17 kts | 66° |
| 2026-05-03 22:55 | 50.90736 | 4.49391 | 125 ft | 18 kts | 65° |
| 2026-05-03 22:55 | 50.90787 | 4.49565 | 125 ft | 17 kts | 65° |
| 2026-05-03 22:55 | 50.90828 | 4.49704 | 126 ft | 11 kts | 62° |
| 2026-05-03 22:55 | 50.90886 | 4.49764 | 128 ft | 10 kts | 15° |
| 2026-05-03 22:56 | 50.90945 | 4.49815 | 126 ft | 9 kts | 39° |
| 2026-05-03 22:56 | 50.91001 | 4.49888 | 125 ft | 11 kts | 38° |
| 2026-05-03 22:56 | 50.91063 | 4.49973 | 123 ft | 12 kts | 48° |
| 2026-05-03 22:56 | 50.91069 | 4.50070 | 123 ft | 7 kts | 116° |
| 2026-05-03 22:57 | 50.91035 | 4.50096 | 126 ft | 5 kts | 177° |
| 2026-05-03 22:57 | 50.90989 | 4.50080 | 124 ft | 11 kts | 195° |
| 2026-05-03 22:57 | 50.90954 | 4.50064 | 126 ft | 0 kts | 195° |
| 2026-05-03 22:57 | 50.90953 | 4.50064 | 126 ft | 0 kts | 195° |
| 2026-05-03 22:58 | 50.90892 | 4.50038 | 122 ft | 32 kts | 194° |
| 2026-05-03 22:58 | 50.90421 | 4.49850 | 132 ft | 104 kts | 193° |
| 2026-05-03 22:58 | 50.89512 | 4.49481 | 170 ft | 160 kts | 194° |
| 2026-05-03 22:58 | 50.88356 | 4.49063 | 723 ft | 173 kts | 191° |
| 2026-05-03 22:59 | 50.87186 | 4.48727 | 1676 ft | 169 kts | 188° |
| 2026-05-03 22:59 | 50.86041 | 4.48468 | 2562 ft | 171 kts | 187° |
| 2026-05-03 22:59 | 50.84776 | 4.48424 | 3004 ft | 200 kts | 169° |
| 2026-05-03 22:59 | 50.83473 | 4.49656 | 3194 ft | 245 kts | 134° |
| 2026-05-03 23:00 | 50.82539 | 4.52079 | 3822 ft | 261 kts | 120° |
| 2026-05-03 23:00 | 50.81501 | 4.54444 | 4833 ft | 265 kts | 132° |
| 2026-05-03 23:00 | 50.80245 | 4.56554 | 5970 ft | 261 kts | 137° |
| 2026-05-03 23:00 | 50.78900 | 4.58569 | 6900 ft | 270 kts | 139° |
| 2026-05-03 23:01 | 50.77512 | 4.60635 | 7929 ft | 275 kts | 139° |
| 2026-05-03 23:01 | 50.76081 | 4.62671 | 8922 ft | 280 kts | 141° |
| 2026-05-03 23:01 | 50.74602 | 4.64656 | 9805 ft | 286 kts | 142° |
| 2026-05-03 23:01 | 50.73063 | 4.66705 | 10492 ft | 296 kts | 142° |
| 2026-05-03 23:02 | 50.71444 | 4.68915 | 10834 ft | 319 kts | 139° |
| 2026-05-03 23:02 | 50.69993 | 4.71718 | 11151 ft | 344 kts | 121° |
| 2026-05-03 23:02 | 50.69092 | 4.75339 | 11490 ft | 364 kts | 108° |
| 2026-05-03 23:02 | 50.68395 | 4.79271 | 11777 ft | 379 kts | 107° |
| 2026-05-03 23:03 | 50.67921 | 4.81955 | 12040 ft | 387 kts | 107° |
| 2026-05-03 23:03 | 50.67182 | 4.86075 | 12608 ft | 391 kts | 107° |
| 2026-05-03 23:03 | 50.66430 | 4.90221 | 13143 ft | 397 kts | 108° |
| 2026-05-03 23:03 | 50.65609 | 4.94396 | 13761 ft | 400 kts | 109° |
| 2026-05-03 23:04 | 50.64753 | 4.98598 | 14367 ft | 405 kts | 109° |
| 2026-05-03 23:04 | 50.63881 | 5.02831 | 14985 ft | 408 kts | 109° |
| 2026-05-03 23:04 | 50.63005 | 5.07096 | 15594 ft | 411 kts | 109° |
| 2026-05-03 23:04 | 50.62124 | 5.11400 | 16170 ft | 415 kts | 109° |
| 2026-05-03 23:05 | 50.61577 | 5.15883 | 16745 ft | 422 kts | 93° |
| 2026-05-03 23:05 | 50.61958 | 5.20494 | 17331 ft | 428 kts | 77° |
| 2026-05-03 23:05 | 50.62503 | 5.25101 | 17865 ft | 429 kts | 88° |
| 2026-05-03 23:05 | 50.62304 | 5.29789 | 18365 ft | 431 kts | 98° |
| 2026-05-03 23:06 | 50.61703 | 5.34419 | 18832 ft | 433 kts | 109° |
| 2026-05-03 23:06 | 50.60434 | 5.38630 | 19291 ft | 431 kts | 126° |
| 2026-05-03 23:06 | 50.58417 | 5.42083 | 19779 ft | 429 kts | 142° |
| 2026-05-03 23:06 | 50.56021 | 5.44877 | 20248 ft | 430 kts | 147° |
| 2026-05-03 23:07 | 50.53534 | 5.47548 | 20671 ft | 433 kts | 148° |
| 2026-05-03 23:07 | 50.51027 | 5.50205 | 21105 ft | 435 kts | 148° |
| 2026-05-03 23:07 | 50.48503 | 5.52882 | 21517 ft | 438 kts | 148° |
| 2026-05-03 23:07 | 50.45967 | 5.55579 | 21940 ft | 442 kts | 148° |
| 2026-05-03 23:08 | 50.43439 | 5.58236 | 22370 ft | 444 kts | 148° |
| 2026-05-03 23:08 | 50.40875 | 5.60945 | 22742 ft | 446 kts | 148° |
| 2026-05-03 23:08 | 50.38291 | 5.63678 | 23106 ft | 449 kts | 148° |
| 2026-05-03 23:08 | 50.35695 | 5.66420 | 23469 ft | 451 kts | 148° |
| 2026-05-03 23:09 | 50.33080 | 5.69177 | 23794 ft | 453 kts | 148° |
| 2026-05-03 23:09 | 50.30474 | 5.71973 | 24121 ft | 457 kts | 146° |
| 2026-05-03 23:09 | 50.28038 | 5.75218 | 24437 ft | 463 kts | 137° |
| 2026-05-03 23:09 | 50.25979 | 5.79111 | 24774 ft | 468 kts | 127° |
| 2026-05-03 23:10 | 50.24404 | 5.83602 | 25083 ft | 474 kts | 115° |
| 2026-05-03 23:10 | 50.23321 | 5.88497 | 25392 ft | 477 kts | 109° |
| 2026-05-03 23:10 | 50.22409 | 5.93499 | 25657 ft | 480 kts | 107° |
| 2026-05-03 23:10 | 50.21570 | 5.98550 | 25915 ft | 482 kts | 106° |
| 2026-05-03 23:11 | 50.20761 | 6.03575 | 26182 ft | 483 kts | 106° |
| 2026-05-03 23:11 | 50.19937 | 6.08671 | 26432 ft | 485 kts | 106° |
| 2026-05-03 23:11 | 50.19128 | 6.13791 | 26701 ft | 487 kts | 104° |
| 2026-05-03 23:11 | 50.18630 | 6.19040 | 26960 ft | 490 kts | 96° |
| 2026-05-03 23:12 | 50.18601 | 6.24365 | 27289 ft | 491 kts | 89° |
| 2026-05-03 23:12 | 50.18807 | 6.29657 | 27652 ft | 490 kts | 87° |
| 2026-05-03 23:12 | 50.19107 | 6.34952 | 27983 ft | 489 kts | 86° |
| 2026-05-03 23:12 | 50.19445 | 6.40225 | 28324 ft | 488 kts | 85° |
| 2026-05-03 23:13 | 50.19795 | 6.45493 | 28671 ft | 487 kts | 85° |
| 2026-05-03 23:13 | 50.20141 | 6.50736 | 29010 ft | 485 kts | 85° |
| 2026-05-03 23:13 | 50.20476 | 6.55974 | 29324 ft | 485 kts | 86° |
| 2026-05-03 23:13 | 50.20797 | 6.61139 | 29647 ft | 484 kts | 86° |
| 2026-05-03 23:14 | 50.21088 | 6.66365 | 29995 ft | 482 kts | 87° |
| 2026-05-03 23:14 | 50.21313 | 6.71585 | 30301 ft | 482 kts | 88° |
| 2026-05-03 23:14 | 50.21490 | 6.76807 | 30678 ft | 480 kts | 89° |
| 2026-05-03 23:14 | 50.21647 | 6.81995 | 31071 ft | 478 kts | 89° |
| 2026-05-03 23:15 | 50.21803 | 6.87180 | 31391 ft | 477 kts | 89° |
| 2026-05-03 23:15 | 50.21961 | 6.92353 | 31706 ft | 476 kts | 89° |
| 2026-05-03 23:15 | 50.22124 | 6.97513 | 32026 ft | 475 kts | 89° |
| 2026-05-03 23:15 | 50.22288 | 7.02663 | 32339 ft | 475 kts | 89° |
| 2026-05-03 23:16 | 50.22452 | 7.07753 | 32659 ft | 474 kts | 89° |
| 2026-05-03 23:16 | 50.22617 | 7.12891 | 32930 ft | 474 kts | 89° |
| 2026-05-03 23:16 | 50.22780 | 7.18023 | 32991 ft | 471 kts | 89° |
| 2026-05-03 23:17 | 50.23102 | 7.28177 | 32998 ft | 465 kts | 89° |
| 2026-05-03 23:17 | 50.23414 | 7.38273 | 32984 ft | 464 kts | 89° |
| 2026-05-03 23:18 | 50.23692 | 7.48354 | 33007 ft | 464 kts | 90° |
| 2026-05-03 23:18 | 50.24107 | 7.58395 | 33008 ft | 466 kts | 83° |
| 2026-05-03 23:19 | 50.25753 | 7.67346 | 33019 ft | 468 kts | 72° |
| 2026-05-03 23:19 | 50.28106 | 7.76847 | 33009 ft | 468 kts | 70° |
| 2026-05-03 23:20 | 50.30553 | 7.86288 | 33001 ft | 469 kts | 69° |
| 2026-05-03 23:20 | 50.32970 | 7.95701 | 32998 ft | 468 kts | 70° |
| 2026-05-03 23:21 | 50.35367 | 8.05178 | 32998 ft | 468 kts | 70° |
| 2026-05-03 23:21 | 50.37761 | 8.14686 | 33007 ft | 468 kts | 70° |
| 2026-05-03 23:22 | 50.41302 | 8.28952 | 33008 ft | 467 kts | 71° |
| 2026-05-03 23:22 | 50.43635 | 8.38403 | 33010 ft | 468 kts | 70° |
| 2026-05-03 23:23 | 50.45989 | 8.47930 | 33008 ft | 468 kts | 70° |
| 2026-05-03 23:23 | 50.48317 | 8.57453 | 33008 ft | 467 kts | 70° |
| 2026-05-03 23:24 | 50.50664 | 8.67003 | 33007 ft | 468 kts | 70° |
| 2026-05-03 23:24 | 50.53009 | 8.76555 | 33006 ft | 468 kts | 70° |
| 2026-05-03 23:25 | 50.55337 | 8.86092 | 33008 ft | 468 kts | 71° |
| 2026-05-03 23:25 | 50.57664 | 8.95684 | 33008 ft | 469 kts | 71° |
| 2026-05-03 23:26 | 50.59973 | 9.05268 | 33008 ft | 468 kts | 71° |
| 2026-05-03 23:26 | 50.62257 | 9.14797 | 33007 ft | 468 kts | 71° |
| 2026-05-03 23:27 | 50.64552 | 9.24393 | 32997 ft | 467 kts | 71° |
| 2026-05-03 23:27 | 50.66841 | 9.33989 | 32996 ft | 467 kts | 71° |
| 2026-05-03 23:28 | 50.69116 | 9.43618 | 32998 ft | 468 kts | 71° |
| 2026-05-03 23:28 | 50.71366 | 9.53189 | 32999 ft | 468 kts | 71° |
| 2026-05-03 23:29 | 50.74216 | 9.62406 | 33001 ft | 470 kts | 58° |
| 2026-05-03 23:29 | 50.77920 | 9.70926 | 32998 ft | 470 kts | 55° |
| 2026-05-03 23:30 | 50.81741 | 9.79268 | 33000 ft | 470 kts | 55° |
| 2026-05-03 23:30 | 50.85584 | 9.87645 | 33000 ft | 470 kts | 55° |
| 2026-05-03 23:31 | 50.89414 | 9.96064 | 33000 ft | 471 kts | 55° |
| 2026-05-03 23:31 | 50.93221 | 10.04516 | 33000 ft | 471 kts | 55° |
| 2026-05-03 23:32 | 50.97010 | 10.12945 | 32997 ft | 469 kts | 55° |
| 2026-05-03 23:32 | 51.00793 | 10.21394 | 32986 ft | 469 kts | 55° |
| 2026-05-03 23:33 | 51.04695 | 10.29696 | 32979 ft | 470 kts | 49° |
| 2026-05-03 23:33 | 51.09732 | 10.36181 | 32976 ft | 470 kts | 29° |
| 2026-05-03 23:34 | 51.15718 | 10.40364 | 32980 ft | 470 kts | 21° |
| 2026-05-03 23:34 | 51.21817 | 10.44123 | 32972 ft | 470 kts | 25° |
| 2026-05-03 23:35 | 51.24634 | 10.46782 | 32977 ft | 471 kts | 36° |
| 2026-05-03 23:35 | 51.27057 | 10.50306 | 32980 ft | 471 kts | 49° |
| 2026-05-03 23:35 | 51.28921 | 10.54580 | 32986 ft | 469 kts | 63° |
| 2026-05-03 23:35 | 51.30239 | 10.59334 | 32982 ft | 468 kts | 69° |
| 2026-05-03 23:36 | 51.32552 | 10.69155 | 32980 ft | 474 kts | 70° |
| 2026-05-03 23:36 | 51.34855 | 10.79042 | 32980 ft | 475 kts | 70° |
| 2026-05-03 23:37 | 51.37153 | 10.88947 | 32977 ft | 474 kts | 70° |
| 2026-05-03 23:37 | 51.39442 | 10.98775 | 32867 ft | 471 kts | 70° |
| 2026-05-03 23:38 | 51.40568 | 11.03644 | 32445 ft | 460 kts | 70° |
| 2026-05-03 23:38 | 51.41683 | 11.08463 | 31411 ft | 461 kts | 70° |
| 2026-05-03 23:38 | 51.42787 | 11.13246 | 30338 ft | 456 kts | 71° |
| 2026-05-03 23:38 | 51.43871 | 11.17946 | 29685 ft | 450 kts | 70° |
| 2026-05-03 23:39 | 51.44960 | 11.22680 | 29009 ft | 444 kts | 71° |
| 2026-05-03 23:39 | 51.46017 | 11.27301 | 28335 ft | 439 kts | 71° |
| 2026-05-03 23:39 | 51.47061 | 11.31875 | 27665 ft | 435 kts | 71° |
| 2026-05-03 23:39 | 51.48094 | 11.36410 | 26995 ft | 430 kts | 71° |
| 2026-05-03 23:40 | 51.49115 | 11.40891 | 26347 ft | 426 kts | 71° |
| 2026-05-03 23:40 | 51.50125 | 11.45341 | 25683 ft | 422 kts | 71° |
| 2026-05-03 23:40 | 51.51023 | 11.49735 | 25068 ft | 418 kts | 77° |
| 2026-05-03 23:40 | 51.51486 | 11.54321 | 24479 ft | 414 kts | 85° |
| 2026-05-03 23:41 | 51.51749 | 11.58900 | 23842 ft | 411 kts | 86° |
| 2026-05-03 23:41 | 51.51976 | 11.63464 | 23217 ft | 408 kts | 86° |
| 2026-05-03 23:41 | 51.52201 | 11.67984 | 22620 ft | 404 kts | 86° |
| 2026-05-03 23:41 | 51.52426 | 11.72466 | 21997 ft | 401 kts | 86° |
| 2026-05-03 23:42 | 51.52649 | 11.76910 | 21367 ft | 399 kts | 86° |
| 2026-05-03 23:42 | 51.52871 | 11.81354 | 20750 ft | 396 kts | 86° |
| 2026-05-03 23:42 | 51.53089 | 11.85740 | 20105 ft | 393 kts | 86° |
| 2026-05-03 23:42 | 51.53303 | 11.90109 | 19463 ft | 390 kts | 87° |
| 2026-05-03 23:43 | 51.53513 | 11.94376 | 18851 ft | 387 kts | 87° |
| 2026-05-03 23:43 | 51.53726 | 11.98673 | 18214 ft | 385 kts | 87° |
| 2026-05-03 23:43 | 51.53934 | 12.02941 | 17557 ft | 382 kts | 87° |
| 2026-05-03 23:43 | 51.54138 | 12.07188 | 16915 ft | 380 kts | 87° |
| 2026-05-03 23:44 | 51.54339 | 12.11403 | 16280 ft | 377 kts | 87° |
| 2026-05-03 23:44 | 51.54535 | 12.15588 | 15639 ft | 373 kts | 87° |
| 2026-05-03 23:44 | 51.54733 | 12.19735 | 15012 ft | 370 kts | 87° |
| 2026-05-03 23:44 | 51.54925 | 12.23850 | 14385 ft | 368 kts | 87° |
| 2026-05-03 23:45 | 51.55112 | 12.27925 | 13718 ft | 364 kts | 87° |
| 2026-05-03 23:45 | 51.55298 | 12.31925 | 13090 ft | 361 kts | 87° |
| 2026-05-03 23:45 | 51.55488 | 12.35994 | 12473 ft | 358 kts | 87° |
| 2026-05-03 23:45 | 51.55669 | 12.39953 | 11859 ft | 354 kts | 87° |
| 2026-05-03 23:46 | 51.55844 | 12.43876 | 11246 ft | 351 kts | 87° |
| 2026-05-03 23:46 | 51.56020 | 12.47776 | 10626 ft | 348 kts | 87° |
| 2026-05-03 23:46 | 51.56186 | 12.51543 | 10337 ft | 333 kts | 87° |
| 2026-05-03 23:46 | 51.56346 | 12.55148 | 10242 ft | 315 kts | 87° |
| 2026-05-03 23:47 | 51.56497 | 12.58568 | 10151 ft | 300 kts | 88° |
| 2026-05-03 23:47 | 51.56635 | 12.61840 | 10072 ft | 287 kts | 88° |
| 2026-05-03 23:47 | 51.56772 | 12.64969 | 9873 ft | 276 kts | 87° |
| 2026-05-03 23:47 | 51.56899 | 12.68053 | 9355 ft | 278 kts | 88° |
| 2026-05-03 23:48 | 51.57019 | 12.71172 | 8877 ft | 281 kts | 87° |
| 2026-05-03 23:48 | 51.57152 | 12.74310 | 8432 ft | 282 kts | 87° |
| 2026-05-03 23:48 | 51.57282 | 12.77465 | 7984 ft | 284 kts | 88° |
| 2026-05-03 23:48 | 51.57184 | 12.80629 | 7507 ft | 283 kts | 102° |
| 2026-05-03 23:49 | 51.56497 | 12.83570 | 7068 ft | 282 kts | 122° |
| 2026-05-03 23:49 | 51.55221 | 12.85936 | 6618 ft | 279 kts | 142° |
| 2026-05-03 23:49 | 51.54151 | 12.87032 | 6330 ft | 276 kts | 155° |
| 2026-05-03 23:49 | 51.52341 | 12.87900 | 5898 ft | 271 kts | 174° |
| 2026-05-03 23:50 | 51.50480 | 12.87758 | 5465 ft | 267 kts | 193° |
| 2026-05-03 23:50 | 51.48768 | 12.86662 | 5041 ft | 265 kts | 212° |
| 2026-05-03 23:50 | 51.47383 | 12.84777 | 4651 ft | 259 kts | 229° |
| 2026-05-03 23:50 | 51.46225 | 12.81487 | 4174 ft | 256 kts | 250° |
| 2026-05-03 23:51 | 51.45920 | 12.79610 | 4008 ft | 260 kts | 259° |
| 2026-05-03 23:51 | 51.45709 | 12.76708 | 3975 ft | 264 kts | 264° |
| 2026-05-03 23:51 | 51.45584 | 12.73764 | 3985 ft | 264 kts | 265° |
| 2026-05-03 23:51 | 51.45453 | 12.70941 | 3958 ft | 249 kts | 264° |
| 2026-05-03 23:52 | 51.45332 | 12.68253 | 3874 ft | 235 kts | 265° |
| 2026-05-03 23:52 | 51.45228 | 12.65712 | 3852 ft | 220 kts | 265° |
| 2026-05-03 23:52 | 51.45128 | 12.63394 | 3834 ft | 198 kts | 264° |
| 2026-05-03 23:52 | 51.45016 | 12.61292 | 3793 ft | 180 kts | 264° |
| 2026-05-03 23:53 | 51.44903 | 12.59413 | 3784 ft | 159 kts | 263° |
| 2026-05-03 23:53 | 51.44813 | 12.57773 | 3731 ft | 138 kts | 264° |
| 2026-05-03 23:53 | 51.44736 | 12.56279 | 3711 ft | 133 kts | 264° |
| 2026-05-03 23:53 | 51.44667 | 12.54800 | 3681 ft | 133 kts | 265° |
| 2026-05-03 23:54 | 51.44605 | 12.53325 | 3654 ft | 134 kts | 265° |
| 2026-05-03 23:54 | 51.44544 | 12.51823 | 3530 ft | 135 kts | 265° |
| 2026-05-03 23:54 | 51.44479 | 12.50344 | 3341 ft | 132 kts | 264° |
| 2026-05-03 23:54 | 51.44403 | 12.48868 | 3145 ft | 135 kts | 265° |
| 2026-05-03 23:55 | 51.44356 | 12.47358 | 2927 ft | 134 kts | 265° |
| 2026-05-03 23:55 | 51.44257 | 12.45885 | 2771 ft | 132 kts | 263° |
| 2026-05-03 23:55 | 51.44209 | 12.44453 | 2607 ft | 130 kts | 268° |
| 2026-05-03 23:55 | 51.44138 | 12.43002 | 2401 ft | 131 kts | 265° |
| 2026-05-03 23:56 | 51.44055 | 12.41537 | 2202 ft | 130 kts | 263° |
| 2026-05-03 23:56 | 51.43991 | 12.40121 | 2070 ft | 127 kts | 266° |
| 2026-05-03 23:56 | 51.43941 | 12.38709 | 1929 ft | 126 kts | 265° |
| 2026-05-03 23:56 | 51.43842 | 12.37317 | 1724 ft | 126 kts | 264° |
| 2026-05-03 23:57 | 51.43814 | 12.35921 | 1588 ft | 126 kts | 266° |
| 2026-05-03 23:57 | 51.43722 | 12.34503 | 1423 ft | 128 kts | 263° |
| 2026-05-03 23:57 | 51.43666 | 12.33074 | 1246 ft | 130 kts | 267° |
| 2026-05-03 23:57 | 51.43597 | 12.31624 | 1099 ft | 131 kts | 265° |
| 2026-05-03 23:58 | 51.43529 | 12.30171 | 921 ft | 130 kts | 266° |
| 2026-05-03 23:58 | 51.43453 | 12.28729 | 740 ft | 130 kts | 265° |
| 2026-05-03 23:58 | 51.43392 | 12.27300 | 564 ft | 129 kts | 265° |
| 2026-05-03 23:58 | 51.43327 | 12.25897 | 457 ft | 119 kts | 265° |
| 2026-05-03 23:59 | 51.43272 | 12.24768 | 452 ft | 83 kts | 266° |
| 2026-05-03 23:59 | 51.43235 | 12.23974 | 447 ft | 55 kts | 268° |
| 2026-05-03 23:59 | 51.43212 | 12.23439 | 448 ft | 37 kts | 265° |
| 2026-05-03 23:59 | 51.43198 | 12.23171 | 447 ft | 15 kts | 263° |
| 2026-05-04 00:00 | 51.43165 | 12.23003 | 430 ft | 17 kts | 245° |
| 2026-05-04 00:00 | 51.43110 | 12.22833 | 426 ft | 17 kts | 242° |
| 2026-05-04 00:00 | 51.43045 | 12.22669 | 429 ft | 16 kts | 233° |
| 2026-05-04 00:00 | 51.42992 | 12.22583 | 439 ft | 9 kts | 203° |
| 2026-05-04 00:01 | 51.42964 | 12.22577 | 443 ft | 0 kts | 179° |
| 2026-05-04 00:01 | 51.42940 | 12.22578 | 443 ft | 9 kts | 178° |
| 2026-05-04 00:01 | 51.42912 | 12.22579 | 435 ft | 0 kts | 178° |
| 2026-05-04 00:02 | 51.42890 | 12.22575 | 444 ft | 5 kts | 194° |
| 2026-05-04 00:02 | 51.42870 | 12.22551 | 435 ft | 3 kts | 229° |
| 2026-05-04 00:02 | 51.42855 | 12.22468 | 440 ft | 13 kts | 261° |
| 2026-05-04 00:02 | 51.42848 | 12.22328 | 438 ft | 13 kts | 266° |
| 2026-05-04 00:03 | 51.42842 | 12.22186 | 438 ft | 13 kts | 266° |
| 2026-05-04 00:03 | 51.42835 | 12.22022 | 439 ft | 16 kts | 266° |
| 2026-05-04 00:03 | 51.42827 | 12.21831 | 428 ft | 18 kts | 266° |
| 2026-05-04 00:03 | 51.42816 | 12.21632 | 429 ft | 18 kts | 264° |
| 2026-05-04 00:04 | 51.42806 | 12.21429 | 434 ft | 17 kts | 266° |
| 2026-05-04 00:04 | 51.42795 | 12.21274 | 428 ft | 11 kts | 251° |
| 2026-05-04 00:04 | 51.42734 | 12.21218 | 429 ft | 11 kts | 194° |
| 2026-05-04 00:04 | 51.42661 | 12.21186 | 442 ft | 11 kts | 197° |
| 2026-05-04 00:05 | 51.42575 | 12.21147 | 429 ft | 17 kts | 195° |
| 2026-05-04 00:05 | 51.42431 | 12.21085 | 435 ft | 24 kts | 194° |
| 2026-05-04 00:05 | 51.42263 | 12.21012 | 437 ft | 26 kts | 195° |
| 2026-05-04 00:05 | 51.42077 | 12.20931 | 421 ft | 28 kts | 195° |
| 2026-05-04 00:06 | 51.41886 | 12.20850 | 420 ft | 28 kts | 194° |
| 2026-05-04 00:06 | 51.41709 | 12.20749 | 434 ft | 25 kts | 188° |
| 2026-05-04 00:06 | 51.41551 | 12.20697 | 434 ft | 22 kts | 194° |
| 2026-05-04 00:06 | 51.41415 | 12.20641 | 439 ft | 19 kts | 195° |
| 2026-05-04 00:07 | 51.41292 | 12.20583 | 448 ft | 17 kts | 196° |
| 2026-05-04 00:07 | 51.41169 | 12.20533 | 445 ft | 19 kts | 193° |
| 2026-05-04 00:07 | 51.41035 | 12.20476 | 441 ft | 21 kts | 196° |
| 2026-05-04 00:07 | 51.40970 | 12.20459 | 426 ft | 2 kts | 143° |
| 2026-05-04 00:08 | 51.40971 | 12.20485 | 442 ft | 5 kts | 76° |
| 2026-05-04 00:08 | 51.40983 | 12.20561 | 442 ft | 9 kts | 76° |
| 2026-05-04 00:08 | 51.40996 | 12.20658 | 430 ft | 10 kts | 82° |
| 2026-05-04 00:08 | 51.41003 | 12.20766 | 432 ft | 11 kts | 85° |
| 2026-05-04 00:09 | 51.41010 | 12.20893 | 446 ft | 12 kts | 85° |
| 2026-05-04 00:09 | 51.41015 | 12.21014 | 449 ft | 10 kts | 85° |
| 2026-05-04 00:09 | 51.41019 | 12.21111 | 453 ft | 10 kts | 87° |
| 2026-05-04 00:09 | 51.41025 | 12.21244 | 458 ft | 15 kts | 86° |
| 2026-05-04 00:10 | 51.41035 | 12.21451 | 460 ft | 22 kts | 85° |
| 2026-05-04 00:10 | 51.41048 | 12.21725 | 466 ft | 25 kts | 85° |
| 2026-05-04 00:10 | 51.41062 | 12.22009 | 465 ft | 26 kts | 85° |
| 2026-05-04 00:10 | 51.41076 | 12.22290 | 465 ft | 25 kts | 83° |
| 2026-05-04 00:11 | 51.41091 | 12.22568 | 467 ft | 24 kts | 86° |
| 2026-05-04 00:11 | 51.41100 | 12.22829 | 467 ft | 22 kts | 89° |
| 2026-05-04 00:11 | 51.41112 | 12.23054 | 476 ft | 16 kts | 84° |
| 2026-05-04 00:11 | 51.41117 | 12.23193 | 474 ft | 11 kts | 86° |
| 2026-05-04 00:12 | 51.41086 | 12.23261 | 479 ft | 7 kts | 152° |
| 2026-05-04 00:12 | 51.41043 | 12.23316 | 478 ft | 9 kts | 119° |
| 2026-05-04 00:12 | 51.41040 | 12.23420 | 477 ft | 10 kts | 85° |
| 2026-05-04 00:12 | 51.41046 | 12.23527 | 469 ft | 10 kts | 85° |
| 2026-05-04 00:13 | 51.41052 | 12.23638 | 474 ft | 10 kts | 85° |
| 2026-05-04 00:13 | 51.41026 | 12.23729 | 473 ft | 10 kts | 154° |
| 2026-05-04 00:13 | 51.40953 | 12.23757 | 467 ft | 12 kts | 175° |
| 2026-05-04 00:13 | 51.40896 | 12.23778 | 471 ft | 5 kts | 127° |
| 2026-05-04 00:14 | 51.40893 | 12.23831 | 473 ft | 5 kts | 89° |
| 2026-05-04 00:14 | 51.40894 | 12.23875 | 473 ft | 3 kts | 86° |
| 2026-05-04 00:14 | 51.40895 | 12.23879 | 473 ft | 0 kts | 86° |